Time;durP1;ratioP1;P1;durP2;ratioP2;P2;SDS_P1;SDS_P2;PMS_P1;PMS_P2;Temp;Humidity;BMP_temperature;BMP_pressure;BME280_temperature;BME280_humidity;BME280_pressure;Samples;Min_cycle;Max_cycle;Signal;HPM_P1;HPM_P2
2021/07/30 00:00:58;;;;;;;12.15;6.30;;;;;;;24.74;43.04;100397.06;5034686;28;20476;-73
2021/07/30 00:03:24;;;;;;;11.15;6.10;;;;;;;24.63;43.05;100390.81;5034597;28;20036;-73
2021/07/30 00:05:51;;;;;;;8.48;5.78;;;;;;;24.72;43.25;100395.91;5033574;28;20029;-73
2021/07/30 00:08:19;;;;;;;7.40;5.10;;;;;;;24.71;43.29;100392.31;5034796;28;20076;-73
2021/07/30 00:10:46;;;;;;;10.05;5.68;;;;;;;24.73;43.33;100391.91;5034540;28;20025;-73
2021/07/30 00:13:13;;;;;;;8.93;5.15;;;;;;;24.76;43.18;100386.25;5034478;28;20029;-73
2021/07/30 00:15:38;;;;;;;7.55;5.80;;;;;;;24.90;42.62;100382.50;5034460;28;20021;-73
2021/07/30 00:18:04;;;;;;;7.57;5.32;;;;;;;24.71;43.31;100386.75;5034353;28;20100;-73
2021/07/30 00:20:30;;;;;;;8.15;5.72;;;;;;;24.68;43.38;100379.19;5034374;28;20025;-73
2021/07/30 00:22:55;;;;;;;7.30;5.30;;;;;;;24.92;42.58;100380.06;5034231;28;20102;-73
2021/07/30 00:25:21;;;;;;;7.57;5.25;;;;;;;24.87;42.66;100372.97;5034336;28;20032;-73
2021/07/30 00:27:47;;;;;;;6.35;5.35;;;;;;;24.71;43.19;100369.97;5034118;28;20075;-73
2021/07/30 00:30:13;;;;;;;5.57;4.95;;;;;;;24.59;43.40;100376.09;5049543;28;20179;-74
2021/07/30 00:32:39;;;;;;;7.65;4.90;;;;;;;24.59;44.02;100374.09;5034386;28;20026;-74
2021/07/30 00:35:04;;;;;;;7.28;4.78;;;;;;;24.58;43.95;100371.72;5034037;28;20029;-74
2021/07/30 00:37:31;;;;;;;10.35;6.07;;;;;;;24.57;43.94;100368.16;5032687;28;20034;-74
2021/07/30 00:39:56;;;;;;;8.25;5.75;;;;;;;24.60;44.03;100361.72;5032402;28;20133;-73
2021/07/30 00:42:22;;;;;;;9.13;6.43;;;;;;;24.57;44.40;100358.97;5033909;28;20171;-73
2021/07/30 00:44:47;;;;;;;8.05;5.45;;;;;;;24.63;44.17;100354.50;5033818;28;20061;-73
2021/07/30 00:47:13;;;;;;;6.53;5.82;;;;;;;24.68;44.40;100359.63;5032598;28;20545;-74
2021/07/30 00:49:40;;;;;;;9.40;5.90;;;;;;;24.56;44.22;100358.19;5033873;28;20583;-74
2021/07/30 00:52:06;;;;;;;8.75;5.88;;;;;;;24.61;44.44;100356.91;5033651;28;20030;-73
2021/07/30 00:54:33;;;;;;;9.68;4.95;;;;;;;24.57;44.22;100353.41;5033742;28;20102;-73
2021/07/30 00:57:00;;;;;;;7.43;5.70;;;;;;;24.50;44.19;100345.88;5033339;28;20044;-73
2021/07/30 00:59:27;;;;;;;7.43;5.95;;;;;;;24.49;44.25;100346.31;5032338;28;20029;-73
2021/07/30 01:01:53;;;;;;;8.45;5.63;;;;;;;24.40;44.81;100349.56;5033471;28;20392;-73
2021/07/30 01:04:19;;;;;;;7.57;5.97;;;;;;;24.44;44.42;100347.56;5033426;28;20029;-73
2021/07/30 01:06:45;;;;;;;10.60;6.70;;;;;;;24.43;44.65;100343.19;5032190;28;20041;-73
2021/07/30 01:09:11;;;;;;;8.52;6.90;;;;;;;24.39;44.84;100350.78;5033374;28;20034;-73
2021/07/30 01:11:36;;;;;;;8.27;6.38;;;;;;;24.39;44.78;100347.22;5033393;28;20514;-73
2021/07/30 01:14:02;;;;;;;12.30;6.82;;;;;;;24.44;44.81;100355.13;5033283;28;20376;-73
2021/07/30 01:16:27;;;;;;;8.27;7.00;;;;;;;24.48;44.65;100355.88;5033168;28;20029;-73
2021/07/30 01:18:53;;;;;;;9.10;6.07;;;;;;;24.52;44.24;100351.06;5033185;28;20036;-73
2021/07/30 01:21:23;;;;;;;7.38;6.68;;;;;;;24.50;44.63;100345.88;5033256;28;20087;-73
2021/07/30 01:23:49;;;;;;;;;;;;;;;24.47;44.34;100348.72;5033753;28;20036;-74
2021/07/30 01:26:16;;;;;;;9.25;6.72;;;;;;;24.42;44.78;100349.97;5033355;28;19913;-73
2021/07/30 01:28:42;;;;;;;12.98;6.95;;;;;;;24.39;44.74;100345.22;5033020;28;20099;-73
2021/07/30 01:31:08;;;;;;;9.02;6.97;;;;;;;24.43;44.45;100347.97;5032999;28;20477;-73
2021/07/30 01:33:34;;;;;;;9.50;7.38;;;;;;;24.35;44.67;100350.84;5032944;28;20025;-73
2021/07/30 01:35:59;;;;;;;9.05;7.10;;;;;;;24.38;44.77;100343.63;5033256;28;20087;-73
2021/07/30 01:38:25;;;;;;;8.10;6.22;;;;;;;24.33;44.88;100346.88;5032932;28;20428;-73
2021/07/30 01:40:51;;;;;;;10.80;7.30;;;;;;;24.37;45.01;100344.06;5032765;28;20451;-74
2021/07/30 01:43:16;;;;;;;12.25;6.60;;;;;;;24.40;44.77;100343.22;5033024;28;20573;-73
2021/07/30 01:45:42;;;;;;;7.07;6.38;;;;;;;24.37;44.79;100338.47;5033098;28;20372;-73
2021/07/30 01:48:08;;;;;;;7.63;6.82;;;;;;;24.32;45.10;100343.28;5032726;28;20507;-73
2021/07/30 01:50:33;;;;;;;9.90;6.68;;;;;;;24.32;45.05;100337.69;5032669;28;20040;-73
2021/07/30 01:52:59;;;;;;;9.05;6.82;;;;;;;24.29;45.26;100343.31;5032656;28;20033;-73
2021/07/30 01:55:25;;;;;;;9.30;6.68;;;;;;;24.36;45.08;100340.47;5032691;28;20030;-73
2021/07/30 01:57:51;;;;;;;8.88;6.72;;;;;;;24.24;45.40;100338.97;5031390;28;20104;-73
2021/07/30 02:00:17;;;;;;;8.25;7.00;;;;;;;24.28;45.33;100341.72;5032677;28;20025;-73
2021/07/30 02:02:43;;;;;;;7.78;6.95;;;;;;;24.56;44.47;100335.03;5032469;28;20025;-74
2021/07/30 02:05:09;;;;;;;7.68;6.13;;;;;;;24.44;44.92;100336.38;5032590;28;20180;-74
2021/07/30 02:07:38;;;;;;;10.90;6.88;;;;;;;24.31;45.13;100333.31;5032563;28;20490;-73
2021/07/30 02:10:07;;;;;;;8.45;5.97;;;;;;;24.17;45.42;100341.84;5032774;28;20179;-73
2021/07/30 02:14:15;;;;;;;8.20;6.23;;;;;;;24.07;45.57;100339.97;5032846;28;20422;-74
2021/07/30 02:15:21;;;;;;;8.07;5.85;;;;;;;24.04;46.04;100343.59;5032461;28;20286;-73
2021/07/30 02:17:47;;;;;;;7.90;5.45;;;;;;;24.02;45.84;100343.97;5032419;28;20057;-73
2021/07/30 02:20:13;;;;;;;9.10;7.65;;;;;;;23.93;46.70;100337.31;5032449;28;20038;-73
2021/07/30 02:22:38;;;;;;;13.15;8.80;;;;;;;23.95;46.75;100346.03;5032589;28;20029;-73
2021/07/30 02:25:04;;;;;;;8.38;7.60;;;;;;;23.92;47.16;100336.50;5031078;28;20519;-73
2021/07/30 02:27:30;;;;;;;8.13;7.43;;;;;;;24.22;46.27;100326.63;5032597;28;20022;-73
2021/07/30 02:29:55;;;;;;;8.43;7.57;;;;;;;24.21;46.43;100325.84;5034604;28;20025;-73
2021/07/30 02:32:21;;;;;;;8.40;7.60;;;;;;;24.13;46.74;100323.56;5036345;28;20021;-73
2021/07/30 02:34:47;;;;;;;8.60;6.57;;;;;;;24.25;46.50;100320.22;5036277;28;20029;-73
2021/07/30 02:37:13;;;;;;;9.30;7.57;;;;;;;23.95;46.89;100318.94;5036286;28;20033;-73
2021/07/30 02:39:38;;;;;;;13.57;7.97;;;;;;;23.89;47.60;100319.81;5036019;28;20048;-73
2021/07/30 02:42:04;;;;;;;10.38;8.20;;;;;;;23.88;47.59;100313.47;5035024;28;20043;-73
2021/07/30 02:44:30;;;;;;;11.52;9.73;;;;;;;23.91;47.74;100311.81;5034916;28;20084;-74
2021/07/30 02:46:55;;;;;;;14.00;10.25;;;;;;;23.91;47.53;100311.81;5035447;28;20111;-74
2021/07/30 02:49:21;;;;;;;13.43;9.48;;;;;;;23.95;47.85;100309.78;5036346;28;20032;-73
2021/07/30 02:51:46;;;;;;;15.63;8.60;;;;;;;24.07;47.25;100312.06;5036064;28;20557;-73
2021/07/30 02:54:12;;;;;;;9.65;8.30;;;;;;;24.05;47.74;100311.69;5035903;28;20025;-73
2021/07/30 02:56:37;;;;;;;13.88;8.57;;;;;;;24.01;47.30;100305.31;5035880;28;20045;-73
2021/07/30 02:59:03;;;;;;;13.52;10.13;;;;;;;23.91;47.62;100309.81;5036165;28;20057;-73
2021/07/30 03:01:28;;;;;;;15.95;9.95;;;;;;;23.86;47.61;100310.25;5035889;28;20021;-73
2021/07/30 03:03:54;;;;;;;15.63;10.40;;;;;;;23.78;48.03;100306.75;5051073;28;20442;-73
2021/07/30 03:06:19;;;;;;;14.82;11.20;;;;;;;23.84;48.16;100303.53;5036039;28;20464;-74
2021/07/30 03:08:45;;;;;;;12.55;10.40;;;;;;;23.83;47.98;100301.94;5051029;28;20025;-73
2021/07/30 03:11:10;;;;;;;14.45;10.50;;;;;;;23.79;48.10;100299.19;5035694;28;20021;-74
2021/07/30 03:13:36;;;;;;;12.57;9.95;;;;;;;23.84;47.74;100301.53;5035648;28;20032;-73
2021/07/30 03:16:03;;;;;;;15.35;11.63;;;;;;;23.72;48.64;100296.44;5035550;28;20032;-73
2021/07/30 03:18:29;;;;;;;17.42;11.50;;;;;;;23.75;48.12;100295.66;5035400;28;20022;-73
2021/07/30 03:20:54;;;;;;;18.33;11.82;;;;;;;23.76;48.47;100303.59;5035741;28;20031;-73
2021/07/30 03:23:20;;;;;;;14.02;11.00;;;;;;;23.73;48.10;100301.66;5035358;28;20377;-74
2021/07/30 03:25:45;;;;;;;19.42;11.88;;;;;;;23.65;48.82;100296.53;5035337;28;20021;-74
2021/07/30 03:28:11;;;;;;;14.07;11.20;;;;;;;23.72;48.64;100296.44;5035369;28;20484;-73
2021/07/30 03:30:37;;;;;;;13.98;12.23;;;;;;;23.83;48.36;100299.16;5035536;28;20041;-73
2021/07/30 03:33:03;;;;;;;21.35;11.48;;;;;;;23.84;48.56;100300.75;5036357;28;20044;-73
2021/07/30 03:35:29;;;;;;;14.15;12.50;;;;;;;23.78;48.42;100292.00;5054115;28;20039;-73
2021/07/30 03:37:55;;;;;;;18.90;12.27;;;;;;;23.76;48.38;100300.81;5055101;28;20036;-74
2021/07/30 03:40:20;;;;;;;15.43;11.85;;;;;;;23.78;48.59;100297.59;5054946;28;20053;-73
2021/07/30 03:42:46;;;;;;;12.82;11.50;;;;;;;23.73;48.79;100310.00;5054940;28;20032;-74
2021/07/30 03:45:11;;;;;;;14.18;12.52;;;;;;;23.83;48.59;100299.16;5055014;28;20036;-73
2021/07/30 03:47:37;;;;;;;15.60;11.93;;;;;;;23.86;48.51;100295.53;5054969;28;20025;-77
2021/07/30 03:50:03;;;;;;;17.35;11.65;;;;;;;23.93;48.73;100298.25;5054863;28;20032;-74
2021/07/30 03:52:29;;;;;;;13.63;11.25;;;;;;;24.21;47.80;100292.34;5054811;28;20025;-73
2021/07/30 03:54:54;;;;;;;11.90;10.70;;;;;;;24.22;47.59;100293.94;5055085;28;20029;-73
2021/07/30 03:57:20;;;;;;;15.65;12.10;;;;;;;24.43;47.02;100295.72;5054722;28;20467;-73
2021/07/30 03:59:45;;;;;;;13.15;11.80;;;;;;;24.48;46.81;100288.84;5054601;28;20032;-73
2021/07/30 04:02:11;;;;;;;14.93;13.52;;;;;;;24.43;47.29;100292.91;5054447;28;20053;-73
2021/07/30 04:04:36;;;;;;;14.98;12.30;;;;;;;24.39;47.53;100292.16;5054814;28;20106;-73
2021/07/30 04:07:02;;;;;;;12.77;10.52;;;;;;;24.28;47.43;100291.47;5054568;28;20040;-73
2021/07/30 04:09:27;;;;;;;17.42;12.93;;;;;;;24.30;47.66;100295.44;5054364;28;20029;-73
2021/07/30 04:11:53;;;;;;;13.25;10.27;;;;;;;24.28;47.71;100294.28;5054365;28;20113;-74
2021/07/30 04:14:19;;;;;;;14.80;11.50;;;;;;;24.21;48.02;100292.34;5054459;28;20123;-73
2021/07/30 04:16:44;;;;;;;13.70;10.40;;;;;;;24.17;47.81;100296.38;5054414;28;20471;-73
2021/07/30 04:19:10;;;;;;;14.27;12.50;;;;;;;24.16;47.61;100295.59;5054340;28;20025;-73
2021/07/30 04:21:38;;;;;;;15.82;11.18;;;;;;;24.07;48.13;100296.09;5054266;28;20036;-73
2021/07/30 04:24:03;;;;;;;14.95;11.63;;;;;;;24.08;48.17;100294.09;5054107;28;20044;-73
2021/07/30 04:26:29;;;;;;;17.17;11.93;;;;;;;23.98;48.24;100298.59;5054139;28;20029;-73
2021/07/30 04:28:55;;;;;;;15.15;13.25;;;;;;;24.00;48.52;100300.97;5054162;28;20060;-74
2021/07/30 04:31:20;;;;;;;15.70;11.80;;;;;;;23.85;48.88;100296.72;5052811;28;20040;-73
2021/07/30 04:33:46;;;;;;;14.73;12.13;;;;;;;24.13;48.14;100304.81;5054311;28;20029;-73
2021/07/30 04:36:16;;;;;;;14.82;12.82;;;;;;;24.05;48.45;100297.72;5054257;28;20021;-73
2021/07/30 04:38:43;;;;;;;22.83;13.10;;;;;;;24.09;48.22;100301.25;5053961;28;20033;-73
2021/07/30 04:41:09;;;;;;;19.92;14.68;;;;;;;24.05;48.38;100294.94;5053694;28;20492;-74
2021/07/30 04:43:34;;;;;;;21.02;12.68;;;;;;;24.03;48.31;100297.31;5054035;28;20025;-74
2021/07/30 04:46:00;;;;;;;14.88;13.00;;;;;;;23.92;48.63;100299.44;5053858;28;20099;-73
2021/07/30 04:48:26;;;;;;;20.38;13.90;;;;;;;23.85;48.93;100296.72;5053737;28;20498;-73
2021/07/30 04:50:52;;;;;;;16.65;12.63;;;;;;;23.86;48.87;100301.09;5052519;28;20468;-73
2021/07/30 04:53:17;;;;;;;18.65;12.05;;;;;;;23.80;49.00;100298.78;5051916;28;20403;-74
2021/07/30 04:55:43;;;;;;;21.15;13.00;;;;;;;23.65;49.46;100308.47;5053577;28;20115;-72
2021/07/30 04:58:08;;;;;;;19.80;12.98;;;;;;;23.72;48.79;100310.41;5053572;28;20032;-72
2021/07/30 05:00:34;;;;;;;16.75;12.10;;;;;;;23.71;48.72;100304.03;5053516;28;20028;-73
2021/07/30 05:02:59;;;;;;;17.75;13.57;;;;;;;23.60;49.34;100313.69;5053449;28;20035;-73
2021/07/30 05:05:27;;;;;;;14.05;11.30;;;;;;;23.64;48.71;100320.81;5053409;28;20108;-72
2021/07/30 05:07:53;;;;;;;12.18;10.48;;;;;;;23.68;48.61;100320.81;5053351;28;20037;-73
2021/07/30 05:10:18;;;;;;;13.88;11.07;;;;;;;23.58;48.97;100316.06;5053333;28;20021;-73
2021/07/30 05:12:44;;;;;;;15.05;10.85;;;;;;;23.51;48.99;100316.94;5053287;28;20047;-73
2021/07/30 05:15:10;;;;;;;24.80;12.88;;;;;;;23.44;49.37;100320.59;5053301;28;20128;-74
2021/07/30 05:17:36;;;;;;;18.08;11.15;;;;;;;23.34;49.30;100331.81;5052744;28;20033;-74
2021/07/30 05:20:01;;;;;;;13.65;10.35;;;;;;;23.39;49.21;100325.81;5053189;28;20031;-73
2021/07/30 05:22:27;;;;;;;20.13;10.98;;;;;;;23.48;48.89;100321.34;5053173;28;20103;-74
2021/07/30 05:24:52;;;;;;;19.80;11.48;;;;;;;23.48;48.93;100320.53;5053018;28;20033;-73
2021/07/30 05:27:18;;;;;;;17.63;11.43;;;;;;;23.49;49.00;100325.69;5053352;28;20021;-73
2021/07/30 05:29:45;;;;;;;17.10;12.27;;;;;;;23.39;49.28;100315.44;5053245;28;20379;-73
2021/07/30 05:32:10;;;;;;;12.73;10.68;;;;;;;23.34;49.18;100324.22;5052927;28;20033;-73
2021/07/30 05:34:36;;;;;;;17.02;12.73;;;;;;;23.37;48.97;100314.28;5052966;28;20029;-73
2021/07/30 05:37:02;;;;;;;14.05;11.50;;;;;;;23.37;49.21;100326.22;5052855;28;20021;-74
2021/07/30 05:39:30;;;;;;;15.55;10.60;;;;;;;23.36;48.92;100327.44;5052678;28;20082;-73
2021/07/30 05:41:56;;;;;;;16.00;11.43;;;;;;;23.35;48.98;100325.03;5052869;28;20112;-73
2021/07/30 05:44:21;;;;;;;17.52;12.07;;;;;;;23.34;49.05;100327.03;5052701;28;20037;-73
2021/07/30 05:46:47;;;;;;;14.15;10.60;;;;;;;23.36;49.23;100329.41;5052671;28;20115;-72
2021/07/30 05:49:13;;;;;;;17.00;12.10;;;;;;;23.30;48.92;100334.63;5052460;28;20109;-72
2021/07/30 05:51:38;;;;;;;14.23;11.75;;;;;;;23.17;49.66;100339.88;5052620;28;20021;-72
2021/07/30 05:54:04;;;;;;;19.35;12.02;;;;;;;23.31;48.95;100338.22;5052717;28;20540;-72
2021/07/30 05:56:30;;;;;;;16.35;11.38;;;;;;;23.28;49.16;100341.84;5052568;28;20024;-74
2021/07/30 05:58:57;;;;;;;17.15;10.85;;;;;;;23.28;49.18;100339.03;5052563;28;20471;-72
2021/07/30 06:01:24;;;;;;;16.40;11.75;;;;;;;23.21;49.05;100340.66;5052833;28;20021;-72
2021/07/30 06:03:49;;;;;;;23.55;12.65;;;;;;;23.22;49.19;100336.69;5051628;28;20025;-72
2021/07/30 06:06:15;;;;;;;15.48;12.65;;;;;;;23.40;48.34;100344.09;5052462;28;20028;-72
2021/07/30 06:08:40;;;;;;;14.82;11.13;;;;;;;23.20;49.19;100341.88;5052462;28;20017;-72
2021/07/30 06:11:06;;;;;;;17.60;11.40;;;;;;;23.25;49.24;100344.22;5052383;28;20023;-73
2021/07/30 06:13:32;;;;;;;15.63;10.48;;;;;;;23.29;48.88;100351.78;5052560;28;20032;-73
2021/07/30 06:15:57;;;;;;;20.23;11.00;;;;;;;23.34;48.80;100352.09;5052341;28;20384;-74
2021/07/30 06:18:23;;;;;;;14.63;9.18;;;;;;;23.29;49.23;100351.78;5052347;28;20067;-73
2021/07/30 06:20:49;;;;;;;10.15;7.07;;;;;;;23.34;48.98;100351.31;5051024;28;20032;-73
2021/07/30 06:23:15;;;;;;;8.60;6.63;;;;;;;23.33;49.25;100353.31;5052218;28;20483;-73
2021/07/30 06:25:41;;;;;;;7.10;5.72;;;;;;;23.38;48.95;100352.09;5052297;28;20025;-73
2021/07/30 06:28:06;;;;;;;8.77;5.57;;;;;;;23.14;49.74;100348.28;5052318;28;20028;-73
2021/07/30 06:30:32;;;;;;;6.53;4.47;;;;;;;23.32;49.24;100342.59;5051156;28;20024;-74
2021/07/30 06:32:57;;;;;;;7.05;5.72;;;;;;;23.26;49.40;100345.78;5051761;28;20029;-73
2021/07/30 06:35:25;;;;;;;7.50;4.72;;;;;;;23.31;49.67;100354.94;5052392;28;20468;-74
2021/07/30 06:37:50;;;;;;;6.07;4.20;;;;;;;23.34;49.26;100351.31;5052228;28;20029;-73
2021/07/30 06:40:16;;;;;;;7.60;4.30;;;;;;;23.13;49.91;100353.06;5051942;28;20163;-74
2021/07/30 06:42:42;;;;;;;6.30;3.65;;;;;;;23.19;49.99;100353.41;5052500;28;20388;-73
2021/07/30 06:45:07;;;;;;;7.13;4.43;;;;;;;23.30;49.61;100353.34;5051988;28;20468;-73
2021/07/30 06:47:34;;;;;;;5.32;3.80;;;;;;;23.19;49.70;100359.78;5052090;28;20033;-74
2021/07/30 06:50:00;;;;;;;6.53;4.35;;;;;;;23.16;49.92;100362.59;5051992;28;20025;-74
2021/07/30 06:52:26;;;;;;;7.78;4.55;;;;;;;23.17;49.83;100362.19;5051976;28;20060;-74
2021/07/30 06:54:55;;;;;;;11.13;5.60;;;;;;;23.20;50.09;100363.34;5050789;28;20136;-74
2021/07/30 06:57:20;;;;;;;9.38;5.40;;;;;;;23.15;50.00;100356.22;5052018;28;20021;-73
2021/07/30 06:59:48;;;;;;;6.00;4.25;;;;;;;23.18;49.83;100360.19;5051894;28;20036;-73
2021/07/30 07:02:13;;;;;;;14.02;5.45;;;;;;;23.17;49.95;100358.59;5051978;28;20025;-74
2021/07/30 07:04:39;;;;;;;5.50;4.50;;;;;;;23.25;49.97;100363.72;5052100;28;20029;-74
2021/07/30 07:07:05;;;;;;;18.58;5.70;;;;;;;23.14;50.42;100365.00;5051947;28;20029;-73
2021/07/30 07:09:31;;;;;;;8.48;7.72;;;;;;;23.15;50.34;100367.38;5051771;28;20021;-74
2021/07/30 07:11:56;;;;;;;10.43;9.32;;;;;;;23.19;50.24;100356.97;5050746;28;20035;-75
2021/07/30 07:14:22;;;;;;;9.82;6.13;;;;;;;23.24;49.95;100358.56;5051841;28;20021;-74
2021/07/30 07:16:47;;;;;;;8.65;5.15;;;;;;;23.21;49.99;100360.19;5055146;28;20071;-74
2021/07/30 07:19:13;;;;;;;7.07;5.35;;;;;;;23.03;50.61;100365.06;5055459;28;20039;-75
2021/07/30 07:21:40;;;;;;;9.48;5.65;;;;;;;23.23;50.15;100370.91;5055449;28;20487;-74
2021/07/30 07:24:07;;;;;;;6.07;5.30;;;;;;;23.46;49.45;100368.38;5055303;28;20390;-73
2021/07/30 07:26:36;;;;;;;10.18;6.25;;;;;;;23.50;49.62;100368.31;5055330;28;20028;-73
2021/07/30 07:29:03;;;;;;;12.23;8.05;;;;;;;23.51;49.66;100379.09;5055238;28;20421;-73
2021/07/30 07:31:29;;;;;;;10.75;7.35;;;;;;;23.48;49.43;100379.09;5055253;28;20057;-73
2021/07/30 07:33:54;;;;;;;13.50;7.80;;;;;;;23.44;49.68;100387.50;5053923;28;20481;-74
2021/07/30 07:36:20;;;;;;;10.55;7.07;;;;;;;23.51;49.67;100383.88;5055197;28;20109;-73
2021/07/30 07:38:45;;;;;;;8.70;7.15;;;;;;;23.33;50.23;100388.75;5055087;28;20029;-73
2021/07/30 07:41:11;;;;;;;12.93;8.32;;;;;;;23.35;50.07;100380.78;5054904;28;20051;-73
2021/07/30 07:43:37;;;;;;;11.65;7.95;;;;;;;23.38;50.02;100391.13;5053409;28;20048;-74
2021/07/30 07:46:03;;;;;;;13.13;10.98;;;;;;;23.52;49.81;100391.81;5054650;28;20032;-74
2021/07/30 07:48:28;;;;;;;11.60;9.40;;;;;;;23.67;49.24;100395.31;5054731;28;20025;-74
2021/07/30 07:50:54;;;;;;;17.20;15.25;;;;;;;23.71;49.32;100396.06;5054931;28;20029;-74
2021/07/30 07:53:20;;;;;;;16.13;14.30;;;;;;;23.71;49.52;100401.66;5054752;28;20021;-74
2021/07/30 07:55:46;;;;;;;15.57;14.07;;;;;;;23.77;48.94;100394.44;5053331;28;20032;-74
2021/07/30 07:58:12;;;;;;;15.85;13.95;;;;;;;23.48;49.90;100401.41;5054690;28;20025;-74
2021/07/30 08:00:39;;;;;;;14.35;12.85;;;;;;;23.66;49.51;100399.31;5054450;28;20360;-73
2021/07/30 08:03:04;;;;;;;13.10;11.80;;;;;;;23.66;49.52;100399.31;5054460;28;20103;-80
2021/07/30 08:05:30;;;;;;;15.80;13.18;;;;;;;23.58;49.69;100394.97;5053274;28;20166;-86
2021/07/30 08:07:56;;;;;;;16.58;14.88;;;;;;;23.76;49.34;100398.44;5052568;28;20017;-84
2021/07/30 08:10:21;;;;;;;16.95;13.43;;;;;;;23.69;49.69;100406.06;5032350;28;20021;-79
2021/07/30 08:12:47;;;;;;;18.05;15.80;;;;;;;23.73;49.75;100401.25;5034056;28;20024;-79
2021/07/30 08:15:13;;;;;;;17.33;14.43;;;;;;;23.72;49.54;100406.03;5034400;28;20040;-80
2021/07/30 08:17:39;;;;;;;17.48;14.95;;;;;;;23.76;49.66;100406.00;5033247;28;20028;-80
2021/07/30 08:20:07;;;;;;;13.70;11.98;;;;;;;23.81;49.49;100411.16;5033192;28;20029;-78
2021/07/30 08:22:33;;;;;;;15.38;13.88;;;;;;;23.72;50.18;100414.41;5034452;28;20037;-79
2021/07/30 08:24:59;;;;;;;13.23;11.93;;;;;;;23.86;49.60;100409.91;5033562;28;20040;-79
2021/07/30 08:27:24;;;;;;;14.32;12.95;;;;;;;23.79;49.86;100417.13;5032488;28;20701;-79
2021/07/30 08:29:50;;;;;;;13.55;12.15;;;;;;;23.77;49.85;100413.97;5034493;28;20100;-79
2021/07/30 08:32:17;;;;;;;15.15;12.98;;;;;;;23.77;50.11;100402.00;5034269;28;20025;-80
2021/07/30 08:34:43;;;;;;;13.85;12.45;;;;;;;23.82;50.20;100414.75;5033038;28;20108;-78
2021/07/30 08:37:09;;;;;;;14.82;13.25;;;;;;;23.89;49.86;100423.84;5032380;28;20029;-84
2021/07/30 08:39:35;;;;;;;13.15;11.80;;;;;;;23.73;50.24;100420.78;5030668;28;20460;-79
2021/07/30 08:42:02;;;;;;;13.30;12.13;;;;;;;23.90;49.80;100416.28;5032348;28;20536;-84
2021/07/30 08:44:28;;;;;;;13.43;12.32;;;;;;;23.90;49.58;100428.22;5034471;28;20098;-80
2021/07/30 08:46:55;;;;;;;12.70;11.60;;;;;;;23.86;49.69;100419.06;5035491;28;20528;-79
2021/07/30 08:49:21;;;;;;;16.65;12.43;;;;;;;23.88;50.01;100425.06;5020259;28;21329;-79
2021/07/30 08:51:51;;;;;;;16.23;12.57;;;;;;;23.94;50.04;100417.00;5032415;28;20476;-78
2021/07/30 08:54:17;;;;;;;13.38;11.38;;;;;;;23.90;50.31;100433.78;5027220;28;20026;-85
2021/07/30 08:56:43;;;;;;;9.70;8.80;;;;;;;23.96;49.78;100425.78;5027725;28;20040;-77
2021/07/30 08:59:08;;;;;;;8.27;7.45;;;;;;;23.89;49.56;100432.22;5017292;28;20746;-77
2021/07/30 09:01:37;;;;;;;7.43;6.63;;;;;;;23.95;49.21;100432.53;5025944;28;20040;-82
2021/07/30 09:04:03;;;;;;;9.55;7.78;;;;;;;23.94;49.17;100439.34;5049444;28;20068;-77
2021/07/30 09:06:28;;;;;;;8.10;7.30;;;;;;;23.84;49.95;100429.84;5053634;28;20059;-87
2021/07/30 09:08:54;;;;;;;9.65;8.82;;;;;;;23.84;49.65;100435.44;5053799;28;20035;-77
2021/07/30 09:11:28;;;;;;;10.25;9.10;;;;;;;23.89;50.03;100437.00;5053595;28;20025;-77
2021/07/30 09:13:54;;;;;;;9.75;8.82;;;;;;;23.97;49.62;100438.53;5053553;28;20108;-77
2021/07/30 09:16:19;;;;;;;12.50;9.20;;;;;;;24.01;49.32;100428.91;5050682;28;20116;-79
2021/07/30 09:18:45;;;;;;;9.40;8.45;;;;;;;23.99;49.69;100430.53;5031841;28;20033;-79
2021/07/30 09:21:17;;;;;;;11.52;6.82;;;;;;;24.01;49.55;100433.69;5032672;28;20030;-89
2021/07/30 09:23:58;;;;;;;9.05;8.15;;;;;;;24.11;49.51;100438.41;5033934;28;20037;-80
2021/07/30 09:26:27;;;;;;;10.07;8.25;;;;;;;24.17;48.97;100438.72;5033736;28;20040;-78
2021/07/30 09:29:01;;;;;;;8.80;7.22;;;;;;;24.21;49.25;100436.72;5033310;28;20044;-90
2021/07/30 09:31:35;;;;;;;13.57;6.60;;;;;;;24.23;49.42;100435.09;5033926;28;20029;-81
2021/07/30 09:34:11;;;;;;;12.57;9.05;;;;;;;24.28;49.46;100433.84;5033165;28;20495;-94
2021/07/30 09:37:04;;;;;;;12.25;10.32;;;;;;;24.30;49.45;100440.59;5048947;28;20030;-78
2021/07/30 09:39:32;;;;;;;11.57;10.38;;;;;;;24.35;49.16;100433.81;5038754;28;20037;-92
2021/07/30 09:42:04;;;;;;;11.23;9.38;;;;;;;24.33;49.29;100434.25;5052372;28;20099;-78
2021/07/30 09:44:50;;;;;;;11.45;10.45;;;;;;;24.49;49.25;100430.88;5053320;28;20079;-86
2021/07/30 09:47:24;;;;;;;11.20;10.10;;;;;;;24.54;49.41;100440.78;5032924;28;20033;-78
2021/07/30 09:49:54;;;;;;;9.07;8.20;;;;;;;24.55;48.93;100439.56;5033367;28;20101;-77
2021/07/30 09:52:27;;;;;;;8.60;7.80;;;;;;;24.66;49.05;100434.69;5032412;28;20095;-78
2021/07/30 09:55:00;;;;;;;10.38;9.57;;;;;;;24.65;49.26;100437.91;5032803;28;20047;-87
2021/07/30 09:57:31;;;;;;;11.10;8.95;;;;;;;24.64;49.51;100439.91;5032989;28;20029;-79
2021/07/30 10:00:03;;;;;;;8.43;7.28;;;;;;;24.62;49.90;100447.88;5032319;28;20488;-90
2021/07/30 10:02:34;;;;;;;10.43;8.70;;;;;;;24.87;49.24;100445.59;5032452;28;20026;-90
2021/07/30 10:05:01;;;;;;;10.10;8.45;;;;;;;24.96;49.02;100458.28;5032019;28;20041;-78
2021/07/30 10:07:30;;;;;;;5.88;4.78;;;;;;;25.04;49.12;100448.63;5031845;28;20025;-78
2021/07/30 10:10:21;;;;;;;6.18;5.32;;;;;;;25.08;49.00;100457.75;5033383;28;20080;-79
2021/07/30 10:12:52;;;;;;;7.60;5.57;;;;;;;25.32;48.48;100447.47;5031841;28;20116;-78
2021/07/30 10:15:18;;;;;;;8.73;7.18;;;;;;;25.26;49.00;100449.94;5033188;28;20048;-79
2021/07/30 10:17:49;;;;;;;8.00;4.85;;;;;;;25.26;48.76;100449.13;5042523;28;20470;-78
2021/07/30 10:20:17;;;;;;;11.38;9.60;;;;;;;25.40;48.51;100460.91;5052535;28;20352;-78
2021/07/30 10:22:53;;;;;;;9.68;8.98;;;;;;;25.43;48.53;100451.69;5053151;28;20031;-88
2021/07/30 10:25:25;;;;;;;7.15;4.22;;;;;;;25.45;48.48;100456.84;5052771;28;20029;-78
2021/07/30 10:27:56;;;;;;;4.30;3.63;;;;;;;25.46;48.52;100453.63;5051416;28;20120;-77
2021/07/30 10:30:22;;;;;;;9.30;4.35;;;;;;;25.64;48.28;100458.97;5052725;28;20061;-77
2021/07/30 10:32:54;;;;;;;8.18;4.38;;;;;;;25.81;48.47;100457.13;5052702;28;20036;-77
2021/07/30 10:35:28;;;;;;;8.48;4.18;;;;;;;25.94;48.19;100449.72;5051197;28;20033;-78
2021/07/30 10:38:14;;;;;;;5.80;3.88;;;;;;;26.09;47.78;100449.50;5051118;28;20124;-87
2021/07/30 10:40:42;;;;;;;4.63;3.58;;;;;;;26.12;47.56;100452.22;5050768;28;20499;-79
2021/07/30 10:43:11;;;;;;;5.18;3.78;;;;;;;26.20;47.59;100450.09;5052306;28;20061;-86
2021/07/30 10:45:39;;;;;;;5.18;3.50;;;;;;;26.36;47.26;100446.59;5051141;28;20439;-88
2021/07/30 10:48:13;;;;;;;6.20;3.95;;;;;;;26.64;47.67;100448.13;5046762;28;20119;-79
2021/07/30 10:50:59;;;;;;;7.20;3.08;;;;;;;26.83;46.56;100450.94;5054152;28;20048;-79
2021/07/30 10:53:34;;;;;;;3.97;2.78;;;;;;;26.63;45.71;100454.94;5055411;28;20060;-79
2021/07/30 10:56:01;;;;;;;4.03;3.20;;;;;;;26.93;45.58;100451.94;5053167;28;20035;-79
2021/07/30 10:58:45;;;;;;;3.85;2.95;;;;;;;26.93;45.75;100451.94;5040256;28;20106;-82
2021/07/30 11:01:16;;;;;;;4.72;2.35;;;;;;;27.10;44.85;100445.19;5031139;28;20038;-79
2021/07/30 11:03:54;;;;;;;2.85;2.55;;;;;;;27.33;44.81;100457.50;5046861;28;20085;-91
2021/07/30 11:06:49;;;;;;;5.50;2.80;;;;;;;27.45;44.55;100456.84;5054850;28;20083;-79
2021/07/30 11:09:18;;;;;;;5.70;2.83;;;;;;;27.40;44.51;100446.13;5056028;28;20051;-80
2021/07/30 11:11:55;;;;;;;3.75;2.40;;;;;;;27.57;43.89;100450.53;5056229;28;20068;-79
2021/07/30 11:14:21;;;;;;;4.70;2.40;;;;;;;27.36;44.34;100456.66;5055092;28;20387;-79
2021/07/30 11:17:05;;;;;;;7.75;2.80;;;;;;;27.30;43.51;100458.41;5056115;28;20021;-83